Archival Weather

Aeroparque Jorge Newbery

Buenos Aires, Argentina (SABE)

Report from: Sunday, March 19, 2023 2:00 PM -03
Current time: Friday, April 19, 2024 5:36 AM -03

Current weather – Weather history – Daily summaries
Weather forecast

Temperature27.0°C (80.6°F)
Heat index29.0°C (84.2°F)
Dew point21.0°C (69.8°F)
Winds 7 kts (3.6 m/s, 8.1 mph) East (90°)
Clouds Sky clear
Altimeter29.83 in.Hg (1010 mB)
Relative humidity70 %
Density altitude1,829 ft. (557 m)
Remarks Ceiling and visibility OK
Corrected report
No significant changes expected in the next two hours
Flight conditions Visual Meteorological Conditions
Raw dataCOR SABE 191700Z 09007KT CAVOK 27/21 Q1010 NOSIG RMK PP000
An error has occurred. This application may no longer respond until reloaded. Reload 🗙